Portada
METAR-TAF:

METAR-TAF

Aeroports :

Oxford, Anglaterra

latitud: 51-50-13N, longitud: 1-19-12W, altitud: 82 m

Observació

L'informe es va fer fa 14 minuts, a les 08:50 UTC
Vent 13 kt del Sud-Oest
Temperatura 18°C
Humitat 73%
Pressió 1024 hPa
Visibilitat 10 km o més
Escasses núvols a una alçada de 1700 ft

METAR: EGTK 220850Z 23013KT 9999 FEW017 18/13 Q1024

Hora: 10:04 (09:04 UTC)

Pronòstic

L'informe es va fer fa 1 hora i 4 minuts, a les 08:00 UTC
Pronòstic vàlid del 22 a les 09 UTC al 22 a les 18 UTC
Vent 10 kt del Oest/Sud-Oest
Visibilitat 10 km o més
Núvols disperses a una alçada de 2000 ft

TAF: EGTK 220800Z 2209/2218 24010KT 9999 SCT020

Observacions i pronòstics meteorològics de més de 4000 aeroports (METAR i TAF).

Les estacions disponibles són els punts grocs i vermells al mapa.

Posi el ratolí al punt desitjat per veure el nom de l'estació.

Feu clic per veure les observacions i els pronòstics meteorològics.

Per canviar el mapa: feu clic els botons verds amb una creu de color negre per apropar; al botó verd amb un guió per allunyar la imatge; o en les fletxes verdes per a mapes adjacents.


METAR-TAF: